AGROMETEOROLOŠKI PORTAL

vinorodna pokrajina

Temelj dobrega kmetovanja

Pregled podatkov za lokacijo ZADLOG - ARSO, meteorološka postaja 157

Pregled senzorjev na lokaciji

ID Ime Zadnja
vrednost
Datum in čas
meritve
(lokalni čas)
Tip
senzorja
6001 Padavine (mm) 0 mm 28.1.2023 08:30 ARSO
6003 Relativna zračna vlaga (2 m) (% RH) 90 % RH 28.1.2023 08:30 ARSO
6002 Temperatura (2 m) (°C) -4,1 °C 28.1.2023 08:30 ARSO

Pregled podatkov zadnjih 24 ur

Zap.
št.
Datum in čas
(lokalni čas)
ZADLOG - ARSO
Padavine Relativna
zračna
vlaga
(2
m)
Temperatura
(2
m)
1 28.1.2023 08:30 0 90 -4,1
2 28.1.2023 08:00 0 90 -4,2
3 28.1.2023 07:30 0 90 -4,3
4 28.1.2023 07:00 0 90 -4,2
5 28.1.2023 06:30 0 90 -4,2
6 28.1.2023 06:00 0 90,3 -4,2
7 28.1.2023 05:30 0 91 -4,2
8 28.1.2023 05:00 0 91 -4,3
9 28.1.2023 04:30 0 91,7 -4,3
10 28.1.2023 04:00 0 92 -4,3
11 28.1.2023 03:30 0 92,3 -4,3
12 28.1.2023 03:00 0 91,7 -4,3
13 28.1.2023 02:30 0 91 -4,2
14 28.1.2023 02:00 0 91 -4,1
15 28.1.2023 01:30 0 91,3 -4,1
16 28.1.2023 01:00 0 90,3 -4
17 28.1.2023 00:30 0 89 -3,9
18 28.1.2023 00:00 0 89 -3,8
19 27.1.2023 23:30 0 89 -3,8
20 27.1.2023 23:00 0 88,7 -3,8
21 27.1.2023 22:30 0 88,3 -3,8
22 27.1.2023 22:00 0 89 -3,7
23 27.1.2023 21:30 0 88,7 -3,7
24 27.1.2023 21:00 0 88 -3,7
25 27.1.2023 20:30 0 87 -3,6
26 27.1.2023 20:00 0 86,7 -3,6
27 27.1.2023 19:30 0 85 -3,6
28 27.1.2023 19:00 0 84,3 -3,5
29 27.1.2023 18:30 0 80,7 -3,3
30 27.1.2023 18:00 0 79 -3,2
31 27.1.2023 17:30 0 78,7 -3,2
32 27.1.2023 17:00 0 77,3 -3
33 27.1.2023 16:30 0 77,3 -2,7
34 27.1.2023 16:00 0 78 -2,4
35 27.1.2023 15:30 0 77 -2
36 27.1.2023 15:00 0 77,7 -2,3
37 27.1.2023 14:30 0 78 -2,4
38 27.1.2023 14:00 0 76 -1,8
39 27.1.2023 13:30 0 79,7 -2,4
40 27.1.2023 13:00 0 79,3 -2,6
41 27.1.2023 12:30 0 78 -2,5
42 27.1.2023 12:00 0 79 -2,7
43 27.1.2023 11:30 0 80 -2,9
44 27.1.2023 11:00 0 82 -3
45 27.1.2023 10:30 0 83 -3,1
46 27.1.2023 10:00 0 84,7 -3,4
47 27.1.2023 09:30 0 85,7 -3,7
48 27.1.2023 09:00 0 85,3 -3,9